Time;durP1;ratioP1;P1;durP2;ratioP2;P2;SDS_P1;SDS_P2;PMS_P1;PMS_P2;Temp;Humidity;BMP_temperature;BMP_pressure;BME280_temperature;BME280_humidity;BME280_pressure;Samples;Min_cycle;Max_cycle;Signal;HPM_P1;HPM_P2
2021/12/28 00:01:12;;;;;;;40.90;22.20;;;;;;;0.48;100.00;99274.58;104730;1309;61470;-82
2021/12/28 00:03:42;;;;;;;44.30;24.20;;;;;;;0.50;100.00;99273.98;104272;1309;61886;-81
2021/12/28 00:06:10;;;;;;;42.30;22.50;;;;;;;0.55;100.00;99276.88;104379;1312;74456;-81
2021/12/28 00:08:37;;;;;;;39.70;20.80;;;;;;;0.58;100.00;99282.98;104467;1309;73309;-82
2021/12/28 00:13:33;;;;;;;43.00;21.30;;;;;;;0.65;100.00;99291.18;104537;1309;62385;-82
2021/12/28 00:18:27;;;;;;;39.50;19.10;;;;;;;0.72;100.00;99283.40;104446;1309;73958;-80
2021/12/28 00:21:03;;;;;;;39.40;22.80;;;;;;;0.74;100.00;99277.41;104519;1312;74316;-82
2021/12/28 00:23:37;;;;;;;44.20;22.50;;;;;;;0.77;100.00;99274.20;104819;1319;72793;-81
2021/12/28 00:26:07;;;;;;;36.30;19.80;;;;;;;0.81;100.00;99272.92;103650;1325;62529;-81
2021/12/28 00:28:34;;;;;;;31.10;18.80;;;;;;;0.86;100.00;99271.30;104675;1320;61610;-80
2021/12/28 00:31:02;;;;;;;32.00;17.60;;;;;;;0.90;100.00;99271.94;104828;1322;77243;-80
2021/12/28 00:35:59;;;;;;;33.00;18.80;;;;;;;0.98;100.00;99268.73;104422;1309;73940;-81
2021/12/28 00:38:27;;;;;;;29.40;18.40;;;;;;;1.00;100.00;99263.85;104513;1309;62511;-81
2021/12/28 00:41:00;;;;;;;32.30;17.40;;;;;;;1.04;100.00;99268.70;104437;1309;62968;-81
2021/12/28 00:43:31;;;;;;;37.80;17.40;;;;;;;1.05;100.00;99264.21;104700;1309;76450;-83
2021/12/28 00:46:04;;;;;;;31.00;16.90;;;;;;;1.06;100.00;99254.72;104652;1316;71677;-82
2021/12/28 00:48:34;;;;;;;32.60;17.90;;;;;;;1.07;100.00;99257.25;105028;1322;73505;-82
2021/12/28 00:51:04;;;;;;;33.40;20.00;;;;;;;1.08;100.00;99249.27;105009;1321;61290;-82
2021/12/28 00:53:31;;;;;;;32.10;18.40;;;;;;;1.09;100.00;99246.23;105024;1325;59995;-82
2021/12/28 00:55:58;;;;;;;32.70;18.30;;;;;;;1.09;100.00;99248.55;104277;1311;75164;-82
2021/12/28 00:58:25;;;;;;;32.30;17.90;;;;;;;1.07;100.00;99239.00;104579;1311;74083;-83
2021/12/28 01:08:33;;;;;;;;;;;;;;;1.07;100.00;99230.29;105232;1309;72756;-81
2021/12/28 01:13:41;;;;;;;37.30;20.50;;;;;;;1.10;100.00;99218.85;104119;1309;72533;-82
2021/12/28 01:16:08;;;;;;;35.60;18.90;;;;;;;1.12;100.00;99215.80;104271;1309;64793;-82
2021/12/28 01:18:35;;;;;;;36.60;19.70;;;;;;;1.14;100.00;99216.55;103935;1314;63192;-80
2021/12/28 01:28:55;;;;;;;44.80;23.40;;;;;;;1.16;100.00;99211.07;105596;1309;58914;-83
2021/12/28 01:33:52;;;;;;;38.20;19.10;;;;;;;1.14;100.00;99209.65;104720;1309;74111;-81
2021/12/28 01:41:19;;;;;;;37.30;21.50;;;;;;;1.14;100.00;99209.34;104680;1309;60229;-82
2021/12/28 01:43:47;;;;;;;31.10;19.40;;;;;;;1.15;100.00;99210.81;104305;1323;61481;-83
2021/12/28 01:46:14;;;;;;;30.40;18.20;;;;;;;1.17;100.00;99215.82;104551;1328;74176;-84
2021/12/28 01:48:42;;;;;;;30.00;17.90;;;;;;;1.19;100.00;99213.88;104585;1324;71542;-83
2021/12/28 01:53:38;;;;;;;42.20;19.20;;;;;;;1.26;100.00;99204.91;104515;1309;58438;-84
2021/12/28 01:56:09;;;;;;;40.00;20.10;;;;;;;1.30;100.00;99199.81;103939;1312;62972;-82
2021/12/28 02:01:25;;;;;;;53.40;23.10;;;;;;;1.39;100.00;99201.02;105700;1306;66925;-83
2021/12/28 02:09:16;;;;;;;36.40;19.00;;;;;;;1.48;100.00;99184.36;104863;1309;128589;-80
2021/12/28 02:11:43;;;;;;;31.10;17.90;;;;;;;1.48;100.00;99185.59;104559;1325;74569;-80
2021/12/28 02:14:11;;;;;;;27.30;17.30;;;;;;;1.47;100.00;99187.95;104056;1322;71423;-81
2021/12/28 02:16:42;;;;;;;27.50;15.50;;;;;;;1.49;100.00;99192.00;104588;1328;72860;-79
2021/12/28 02:19:11;;;;;;;30.60;18.20;;;;;;;1.47;100.00;99190.79;104663;1322;63940;-82
2021/12/28 02:21:39;;;;;;;29.70;17.70;;;;;;;1.46;100.00;99194.34;104734;1326;60607;-80
2021/12/28 02:24:07;;;;;;;28.50;17.10;;;;;;;1.46;100.00;99205.70;104702;1328;74233;-79
2021/12/28 02:26:35;;;;;;;28.90;16.80;;;;;;;1.48;100.00;99202.89;104108;1325;71432;-80
2021/12/28 02:29:03;;;;;;;29.10;16.10;;;;;;;1.51;100.00;99194.05;104639;1326;74004;-79
2021/12/28 02:36:45;;;;;;;;;;;;;;;;;;;;;
2021/12/28 02:38:59;;;;;;;24.50;15.50;;;;;;;1.51;100.00;99191.23;104727;1309;59143;-81
2021/12/28 02:49:00;;;;;;;30.50;16.80;;;;;;;1.68;100.00;99181.04;104700;1309;74388;-80
2021/12/28 02:51:27;;;;;;;32.90;19.20;;;;;;;1.70;100.00;99173.70;104289;1312;75223;-80
2021/12/28 03:01:30;;;;;;;34.30;17.30;;;;;;;1.82;100.00;99174.03;104334;1309;75081;-80
2021/12/28 03:04:04;;;;;;;23.60;14.50;;;;;;;1.82;100.00;99165.11;104485;1306;74520;-80
2021/12/28 03:09:05;;;;;;;33.10;18.10;;;;;;;1.79;100.00;99154.45;104466;1312;60661;-80
2021/12/28 03:16:50;;;;;;;31.80;16.80;;;;;;;1.82;100.00;99155.21;104463;1303;132603;-82
2021/12/28 03:21:51;;;;;;;;;;;;;;;1.84;100.00;99156.72;105043;1309;60878;-79
2021/12/28 03:24:18;;;;;;;31.40;17.90;;;;;;;1.86;100.00;99148.66;104425;1311;62502;-82
2021/12/28 03:26:56;;;;;;;;;;;;;;;;;;;;;
2021/12/28 03:29:17;;;;;;;25.60;16.30;;;;;;;1.89;100.00;99136.93;104481;1309;71553;-82
2021/12/28 03:31:44;;;;;;;27.00;15.80;;;;;;;1.85;100.00;99135.52;104120;1312;75497;-82
2021/12/28 03:39:26;;;;;;;23.10;15.00;;;;;;;1.83;100.00;99118.09;104266;1312;73818;-82
2021/12/28 03:41:53;;;;;;;23.60;14.10;;;;;;;1.86;100.00;99115.41;104310;1312;73931;-83
2021/12/28 03:44:20;;;;;;;24.40;14.70;;;;;;;1.87;100.00;99106.73;104525;1309;71673;-84
2021/12/28 03:46:49;;;;;;;23.70;14.00;;;;;;;1.89;100.00;99099.90;104436;1308;62654;-83
2021/12/28 03:52:01;;;;;;;24.60;14.80;;;;;;;1.93;100.00;99095.48;104870;1309;72782;-83
2021/12/28 04:09:57;;;;;;;27.20;14.90;;;;;;;2.16;100.00;99081.41;104441;1309;73186;-81
2021/12/28 04:12:05;;;;;;;21.40;13.40;;;;;;;2.18;100.00;99082.58;104859;1306;60910;-81
2021/12/28 04:14:32;;;;;;;24.10;14.50;;;;;;;2.21;100.00;99087.50;104278;1312;62324;-81
2021/12/28 04:16:59;;;;;;;22.60;12.30;;;;;;;2.23;100.00;99086.09;104808;1309;74402;-80
2021/12/28 04:19:26;;;;;;;23.30;13.60;;;;;;;2.27;100.00;99084.34;104229;1312;66843;-80
2021/12/28 04:21:52;;;;;;;23.40;13.70;;;;;;;2.28;100.00;99083.45;104301;1312;75839;-80
2021/12/28 04:24:19;;;;;;;18.20;12.00;;;;;;;2.28;100.00;99081.36;104399;1312;61339;-80
2021/12/28 04:26:46;;;;;;;19.20;13.00;;;;;;;2.28;100.00;99078.78;104577;1309;130533;-80
2021/12/28 04:29:13;;;;;;;21.60;12.50;;;;;;;2.28;100.00;99077.90;104297;1311;75260;-80
2021/12/28 04:36:59;;;;;;;;;;;;;;;;;;;;;
2021/12/28 04:39:18;;;;;;;18.90;11.40;;;;;;;2.33;100.00;99070.87;104607;1309;61497;-79
2021/12/28 04:41:46;;;;;;;23.50;12.50;;;;;;;2.36;100.00;99069.95;104024;1315;76090;-78
2021/12/28 04:49:21;;;;;;;19.70;13.30;;;;;;;2.52;100.00;99081.48;104714;1309;62048;-82
2021/12/28 04:51:59;;;;;;;19.80;12.10;;;;;;;2.56;100.00;99078.05;104890;1323;61600;-82
2021/12/28 04:54:26;;;;;;;18.50;11.90;;;;;;;2.62;100.00;99079.73;104883;1322;75307;-83
2021/12/28 04:56:53;;;;;;;20.10;12.90;;;;;;;2.67;100.00;99079.08;104938;1322;72617;-83
2021/12/28 04:59:20;;;;;;;17.30;11.20;;;;;;;2.72;100.00;99068.60;104997;1322;72895;-83
2021/12/28 05:01:48;;;;;;;18.20;11.60;;;;;;;2.76;100.00;99059.33;104551;1327;62234;-84
2021/12/28 05:04:17;;;;;;;20.10;12.40;;;;;;;2.81;100.00;99054.11;104881;1324;60432;-83
2021/12/28 05:06:53;;;;;;;19.00;12.40;;;;;;;2.83;100.00;99052.35;104896;1321;73208;-83
2021/12/28 05:09:44;;;;;;;19.30;11.60;;;;;;;2.88;100.00;99052.19;101686;1342;600065;-82
2021/12/28 05:14:43;;;;;;;40.20;16.40;;;;;;;2.89;100.00;99045.98;103794;1316;60804;-82
2021/12/28 05:25:04;;;;;;;25.60;14.10;;;;;;;2.92;100.00;99040.36;103154;1325;62077;-81
2021/12/28 05:27:42;;;;;;;;;;;;;;;;;;;;;
2021/12/28 05:37:36;;;;;;;23.40;12.90;;;;;;;3.07;100.00;99033.16;103019;1326;63542;-81
2021/12/28 05:40:06;;;;;;;19.40;10.20;;;;;;;3.10;100.00;99034.23;103052;1325;61377;-81
2021/12/28 05:42:38;;;;;;;20.70;12.10;;;;;;;3.12;100.00;99030.66;102878;1325;76223;-83
2021/12/28 05:45:08;;;;;;;16.50;10.00;;;;;;;3.16;100.00;99030.55;103474;1324;72077;-81
2021/12/28 05:50:09;;;;;;;16.90;11.10;;;;;;;3.27;100.00;99022.03;103927;1315;63210;-81
2021/12/28 05:52:36;;;;;;;24.30;11.40;;;;;;;3.34;100.00;99011.52;104352;1314;62549;-81
2021/12/28 05:57:40;;;;;;;14.70;9.30;;;;;;;3.42;100.00;99009.08;103722;1315;70504;-82
2021/12/28 06:02:32;;;;;;;18.40;10.60;;;;;;;3.42;100.00;99007.46;103878;1315;57691;-80
2021/12/28 06:12:34;;;;;;;17.40;11.00;;;;;;;3.47;100.00;99015.44;103945;1308;71195;-83
2021/12/28 06:17:35;;;;;;;;;;;;;;;3.59;100.00;99008.17;104028;1317;59255;-80
2021/12/28 06:22:37;;;;;;;;;;;;;;;3.65;100.00;99006.50;105105;1315;66934;-80
2021/12/28 06:30:03;;;;;;;18.00;9.10;;;;;;;3.60;100.00;98992.84;104400;1313;129865;-80
2021/12/28 06:37:31;;;;;;;15.30;10.50;;;;;;;3.48;100.00;98992.98;105733;1316;72822;-79
2021/12/28 06:39:58;;;;;;;16.30;9.20;;;;;;;3.45;100.00;98988.96;103983;1330;64565;-79
2021/12/28 06:42:24;;;;;;;17.00;8.30;;;;;;;3.41;100.00;98984.98;103342;1334;57645;-80
2021/12/28 06:44:52;;;;;;;13.80;8.60;;;;;;;3.40;100.00;98982.21;104144;1331;58918;-80
2021/12/28 06:47:19;;;;;;;13.70;8.80;;;;;;;3.38;100.00;98983.48;103872;1335;72212;-80
2021/12/28 06:49:46;;;;;;;11.90;8.70;;;;;;;3.37;100.00;98985.46;104052;1333;72689;-81
2021/12/28 06:52:13;;;;;;;17.60;8.90;;;;;;;3.36;100.00;98987.04;103291;1338;63470;-80
2021/12/28 06:54:40;;;;;;;16.40;9.00;;;;;;;3.35;100.00;98989.92;103922;1329;61318;-80
2021/12/28 06:57:09;;;;;;;27.30;13.30;;;;;;;3.35;100.00;98990.05;104136;1331;74345;-81
2021/12/28 06:59:37;;;;;;;21.70;10.80;;;;;;;3.36;100.00;98991.04;103881;1330;71697;-79
2021/12/28 07:02:05;;;;;;;19.00;10.40;;;;;;;3.36;100.00;98993.13;103745;1329;73137;-80
2021/12/28 07:04:33;;;;;;;14.50;8.40;;;;;;;3.33;100.00;98993.12;103302;1336;62318;-81
2021/12/28 07:07:00;;;;;;;16.90;8.60;;;;;;;3.28;100.00;98991.41;103161;1337;61773;-80
2021/12/28 07:09:27;;;;;;;15.80;9.10;;;;;;;3.22;100.00;98993.25;104085;1327;73517;-80
2021/12/28 07:11:53;;;;;;;15.20;8.50;;;;;;;3.11;100.00;98993.79;103987;1330;72489;-79
2021/12/28 07:14:22;;;;;;;12.10;8.20;;;;;;;3.00;100.00;98994.40;104167;1327;72229;-81
2021/12/28 07:16:48;;;;;;;15.40;8.90;;;;;;;2.93;100.00;98996.79;103260;1335;63293;-80
2021/12/28 07:22:00;;;;;;;13.20;8.60;;;;;;;2.88;100.00;98992.60;104149;1313;71945;-80
2021/12/28 07:29:45;;;;;;;21.00;11.50;;;;;;;2.95;100.00;98991.57;104475;1313;62381;-81
2021/12/28 07:32:12;;;;;;;14.80;9.90;;;;;;;2.94;100.00;98989.05;103887;1314;64302;-80
2021/12/28 07:34:42;;;;;;;24.20;10.30;;;;;;;2.92;100.00;98993.73;103829;1315;75722;-76
2021/12/28 07:37:09;;;;;;;14.30;8.00;;;;;;;2.92;100.00;98996.92;104061;1327;74017;-76
2021/12/28 07:39:38;;;;;;;16.80;9.10;;;;;;;2.90;100.00;98992.39;103524;1334;74377;-76
2021/12/28 07:42:05;;;;;;;14.20;8.90;;;;;;;2.92;100.00;98994.27;103960;1330;63439;-73
2021/12/28 07:44:36;;;;;;;14.80;8.00;;;;;;;2.97;100.00;98988.36;104130;1331;59475;-74
2021/12/28 07:47:04;;;;;;;11.90;7.60;;;;;;;2.99;100.00;98982.03;103217;1336;74851;-75
2021/12/28 07:49:31;;;;;;;13.90;8.50;;;;;;;2.98;100.00;98979.99;103883;1326;72551;-74
2021/12/28 07:51:58;;;;;;;15.20;7.80;;;;;;;2.96;100.00;98972.05;104173;1328;72311;-74
2021/12/28 07:54:29;;;;;;;15.10;9.00;;;;;;;2.93;100.00;98970.98;104238;1327;62296;-74
2021/12/28 07:56:55;;;;;;;16.70;9.50;;;;;;;2.92;100.00;98971.02;104201;1329;60339;-74
2021/12/28 07:59:22;;;;;;;17.40;9.60;;;;;;;2.94;100.00;98969.46;104099;1328;75105;-74
2021/12/28 08:02:09;;;;;;;22.00;9.10;;;;;;;2.96;100.00;98969.41;104249;1326;72327;-74
2021/12/28 08:04:36;;;;;;;18.40;8.80;;;;;;;2.98;100.00;98972.67;104147;1327;72942;-74
2021/12/28 08:07:08;;;;;;;21.30;9.90;;;;;;;3.00;100.00;98973.65;104105;1327;62187;-73
2021/12/28 08:09:37;;;;;;;12.70;8.20;;;;;;;3.00;100.00;98976.27;104095;1327;60519;-73
2021/12/28 08:12:05;;;;;;;21.20;8.80;;;;;;;3.00;100.00;98975.94;103364;1339;73332;-74
2021/12/28 08:14:32;;;;;;;17.20;8.30;;;;;;;3.00;100.00;98969.13;103733;1326;72625;-74
2021/12/28 08:17:04;;;;;;;16.00;9.10;;;;;;;3.02;100.00;98971.75;103526;1330;73463;-74
2021/12/28 08:19:33;;;;;;;16.00;7.60;;;;;;;3.03;100.00;98968.09;103991;1330;61194;-74
2021/12/28 08:22:00;;;;;;;24.70;9.20;;;;;;;3.07;100.00;98964.85;103850;1330;60638;-74
2021/12/28 08:24:29;;;;;;;20.20;8.40;;;;;;;3.12;100.00;98964.66;103550;1327;74054;-74
2021/12/28 08:26:58;;;;;;;19.20;7.70;;;;;;;3.17;100.00;98960.29;104111;1328;71559;-74
2021/12/28 08:29:25;;;;;;;16.60;8.30;;;;;;;3.22;100.00;98955.69;103602;1327;72860;-74
2021/12/28 08:31:54;;;;;;;17.70;7.90;;;;;;;3.28;100.00;98952.42;104117;1327;62256;-73
2021/12/28 08:34:24;;;;;;;16.30;7.60;;;;;;;3.33;100.00;98949.93;103982;1330;60679;-73
2021/12/28 08:36:54;;;;;;;17.80;7.20;;;;;;;3.37;100.00;98946.05;103814;1328;75049;-74
2021/12/28 08:39:21;;;;;;;10.40;7.00;;;;;;;3.36;100.00;98940.23;104021;1328;71757;-74
2021/12/28 08:41:50;;;;;;;13.10;7.70;;;;;;;3.34;100.00;98941.52;103926;1334;72938;-74
2021/12/28 08:44:29;;;;;;;16.80;7.40;;;;;;;3.31;100.00;98942.02;104057;1328;62256;-74
2021/12/28 08:46:56;;;;;;;16.20;7.70;;;;;;;3.27;100.00;98947.65;104024;1328;61585;-75
2021/12/28 08:49:24;;;;;;;14.60;7.60;;;;;;;3.23;100.00;98945.79;103956;1329;74695;-76
2021/12/28 08:51:54;;;;;;;14.80;8.40;;;;;;;3.20;100.00;98949.08;103934;1330;72580;-76
2021/12/28 08:54:21;;;;;;;14.40;7.70;;;;;;;3.19;100.00;98948.92;103995;1328;72575;-76
2021/12/28 08:56:50;;;;;;;12.60;7.90;;;;;;;3.18;100.00;98949.88;103738;1328;62403;-75
2021/12/28 08:59:20;;;;;;;15.60;8.00;;;;;;;3.19;100.00;98948.83;103267;1331;61540;-76
2021/12/28 09:01:49;;;;;;;28.60;9.50;;;;;;;3.20;100.00;98945.44;104005;1330;73477;-75
2021/12/28 09:04:20;;;;;;;14.20;8.10;;;;;;;3.20;100.00;98941.54;104029;1328;71447;-75
2021/12/28 09:06:51;;;;;;;20.00;8.40;;;;;;;3.22;100.00;98940.09;103962;1329;72954;-75
2021/12/28 09:09:21;;;;;;;13.50;7.30;;;;;;;3.24;100.00;98930.30;104014;1330;63770;-75
2021/12/28 09:11:48;;;;;;;13.30;7.10;;;;;;;3.30;100.00;98924.60;104016;1328;61018;-75
2021/12/28 09:14:15;;;;;;;14.10;7.90;;;;;;;3.40;100.00;98921.75;104104;1333;73354;-75
2021/12/28 09:16:42;;;;;;;16.80;8.40;;;;;;;3.50;100.00;98918.16;103985;1328;72416;-75
2021/12/28 09:19:09;;;;;;;20.40;9.70;;;;;;;3.60;100.00;98917.74;104129;1327;71895;-75
2021/12/28 09:21:36;;;;;;;17.10;9.20;;;;;;;3.69;100.00;98913.36;103960;1330;61749;-75
2021/12/28 09:24:03;;;;;;;15.80;8.10;;;;;;;3.78;100.00;98904.88;103936;1328;60540;-75
2021/12/28 09:26:50;;;;;;;16.70;8.20;;;;;;;3.89;100.00;98904.10;104104;1330;74836;-75
2021/12/28 09:29:17;;;;;;;20.80;8.60;;;;;;;3.98;100.00;98907.45;104052;1327;71425;-75
2021/12/28 09:31:45;;;;;;;17.70;7.80;;;;;;;4.08;100.00;98905.23;103887;1330;73207;-75
2021/12/28 09:34:21;;;;;;;21.20;8.60;;;;;;;4.20;100.00;98904.23;103084;1335;62806;-75
2021/12/28 09:36:57;;;;;;;12.90;6.60;;;;;;;4.30;100.00;98907.75;103954;1330;59982;-76
2021/12/28 09:39:26;;;;;;;17.70;6.80;;;;;;;4.38;100.00;98903.58;104052;1327;74233;-75
2021/12/28 09:41:58;;;;;;;17.30;6.80;;;;;;;4.44;100.00;98908.05;104159;1328;71411;-75
2021/12/28 09:44:26;;;;;;;12.80;5.90;;;;;;;4.50;100.00;98908.65;103842;1331;74036;-74
2021/12/28 09:47:00;;;;;;;14.20;6.20;;;;;;;4.56;100.00;98909.73;104025;1329;60986;-76
2021/12/28 09:49:31;;;;;;;14.50;6.40;;;;;;;4.60;100.00;98906.02;103844;1331;61395;-75
2021/12/28 09:52:02;;;;;;;13.60;5.40;;;;;;;4.65;100.00;98905.35;103700;1332;74130;-74
2021/12/28 09:54:29;;;;;;;12.80;5.80;;;;;;;4.68;100.00;98903.73;103639;1328;72634;-77
2021/12/28 09:56:57;;;;;;;12.90;6.90;;;;;;;4.72;100.00;98907.77;104103;1327;73340;-74
2021/12/28 09:59:24;;;;;;;12.10;4.60;;;;;;;4.75;100.00;98903.60;104112;1331;63376;-73
2021/12/28 10:01:51;;;;;;;18.20;5.00;;;;;;;4.79;100.00;98902.95;104162;1328;60653;-74
2021/12/28 10:04:18;;;;;;;10.80;4.20;;;;;;;4.82;100.00;98900.94;103989;1331;74130;-74
2021/12/28 10:06:46;;;;;;;10.60;4.40;;;;;;;4.87;100.00;98902.50;103955;1330;72413;-73
2021/12/28 10:09:21;;;;;;;12.00;4.70;;;;;;;4.93;100.00;98898.14;103737;1327;72948;-73
2021/12/28 10:11:53;;;;;;;15.00;6.30;;;;;;;4.98;100.00;98888.85;103971;1327;61285;-73
2021/12/28 10:14:27;;;;;;;11.40;4.70;;;;;;;5.03;100.00;98882.36;104077;1330;60267;-74
2021/12/28 10:16:57;;;;;;;18.20;6.10;;;;;;;5.12;100.00;98879.23;104033;1332;75154;-74
2021/12/28 10:19:40;;;;;;;17.30;6.30;;;;;;;5.22;100.00;98870.17;104034;1328;72181;-73
2021/12/28 10:22:27;;;;;;;13.00;6.50;;;;;;;5.35;100.00;98868.66;104025;1328;73222;-73
2021/12/28 10:25:16;;;;;;;13.60;5.50;;;;;;;5.44;100.00;98869.92;104007;1325;62310;-73
2021/12/28 10:27:48;;;;;;;9.00;4.70;;;;;;;5.58;100.00;98866.02;103277;1334;60425;-74
2021/12/28 10:30:29;;;;;;;13.40;5.20;;;;;;;5.71;99.94;98862.98;104011;1328;74437;-74
2021/12/28 10:33:03;;;;;;;12.00;4.30;;;;;;;5.86;99.84;98859.95;104007;1327;71511;-74
2021/12/28 10:35:36;;;;;;;11.10;3.60;;;;;;;6.01;99.90;98858.82;104012;1329;73006;-74
2021/12/28 10:38:07;;;;;;;14.20;4.30;;;;;;;6.13;99.12;98857.77;103893;1334;62302;-74
2021/12/28 10:40:45;;;;;;;13.80;3.90;;;;;;;6.25;98.71;98850.73;104042;1327;60657;-74
2021/12/28 10:43:16;;;;;;;6.90;3.40;;;;;;;6.33;97.68;98847.23;104036;1329;74261;-73
2021/12/28 10:45:50;;;;;;;7.90;4.20;;;;;;;6.42;97.16;98840.02;104035;1331;71441;-73
2021/12/28 10:48:21;;;;;;;8.30;3.70;;;;;;;6.49;96.73;98833.41;103720;1333;72842;-74
2021/12/28 10:51:12;;;;;;;8.20;3.40;;;;;;;6.56;96.49;98829.92;103505;1331;63296;-73
2021/12/28 10:53:49;;;;;;;11.30;3.70;;;;;;;6.61;96.12;98820.95;104205;1327;60807;-74
2021/12/28 10:56:16;;;;;;;11.30;4.00;;;;;;;6.61;95.52;98813.83;104190;1331;75249;-74
2021/12/28 10:58:47;;;;;;;9.50;3.90;;;;;;;6.60;95.04;98815.56;103996;1328;71674;-73
2021/12/28 11:01:23;;;;;;;9.30;4.30;;;;;;;6.59;94.83;98812.88;103952;1330;74201;-73
2021/12/28 11:03:52;;;;;;;6.00;2.70;;;;;;;6.60;94.80;98815.77;104059;1328;63347;-78
2021/12/28 11:06:22;;;;;;;6.80;3.30;;;;;;;6.60;94.81;98811.15;103748;1334;60609;-73
2021/12/28 11:09:11;;;;;;;10.80;4.00;;;;;;;6.62;94.31;98807.91;104003;1330;74170;-74
2021/12/28 11:11:54;;;;;;;12.50;3.50;;;;;;;6.63;94.34;98799.57;104004;1327;71759;-74
2021/12/28 11:14:24;;;;;;;7.10;3.40;;;;;;;6.64;93.90;98789.84;104004;1333;72899;-74
2021/12/28 11:17:07;;;;;;;8.20;3.70;;;;;;;6.63;93.73;98796.08;104116;1328;62254;-74
2021/12/28 11:19:37;;;;;;;8.20;3.10;;;;;;;6.63;93.93;98792.38;103392;1327;61775;-73
2021/12/28 11:22:11;;;;;;;7.80;3.00;;;;;;;6.63;93.78;98793.37;103188;1335;74161;-74
2021/12/28 11:24:43;;;;;;;12.40;3.30;;;;;;;6.64;93.73;98787.61;104044;1334;72455;-73
2021/12/28 11:27:22;;;;;;;9.00;3.30;;;;;;;6.65;93.59;98790.82;103997;1330;74150;-72
2021/12/28 11:29:59;;;;;;;5.60;2.90;;;;;;;6.66;93.64;98783.16;103297;1337;62287;-73
2021/12/28 11:32:27;;;;;;;7.60;3.00;;;;;;;6.70;93.53;98771.95;104178;1333;59308;-73
2021/12/28 11:34:53;;;;;;;7.20;3.10;;;;;;;6.75;93.27;98769.56;103705;1335;75151;-73
2021/12/28 11:37:23;;;;;;;5.20;2.80;;;;;;;6.81;93.16;98765.79;103900;1329;58396;-73
2021/12/28 11:40:00;;;;;;;6.20;2.80;;;;;;;6.85;92.35;98766.00;104132;1326;72988;-73
2021/12/28 11:42:29;;;;;;;7.70;3.90;;;;;;;6.88;92.46;98757.77;103868;1330;63368;-73
2021/12/28 11:44:59;;;;;;;9.70;3.30;;;;;;;6.92;92.50;98759.04;103968;1328;60689;-73
2021/12/28 11:47:29;;;;;;;8.20;2.90;;;;;;;6.96;92.12;98755.98;104197;1328;75241;-73
2021/12/28 11:49:58;;;;;;;9.60;3.20;;;;;;;6.99;91.83;98745.72;104093;1328;72397;-74
2021/12/28 11:52:32;;;;;;;8.50;2.90;;;;;;;7.05;91.71;98741.63;103556;1327;74120;-74
2021/12/28 11:55:00;;;;;;;6.70;3.20;;;;;;;7.14;91.81;98738.13;104001;1330;61462;-74
2021/12/28 11:57:39;;;;;;;10.40;3.30;;;;;;;7.26;91.29;98738.63;103802;1332;61735;-74
2021/12/28 12:00:09;;;;;;;6.20;2.80;;;;;;;7.41;90.44;98730.07;103497;1334;75149;-73
2021/12/28 12:02:47;;;;;;;5.60;2.60;;;;;;;7.56;90.25;98728.60;104144;1334;72502;-73
2021/12/28 12:05:26;;;;;;;7.40;2.70;;;;;;;7.72;90.00;98730.71;104010;1333;74136;-74
2021/12/28 12:08:14;;;;;;;8.50;2.50;;;;;;;7.84;89.31;98734.54;103978;1330;62286;-73
2021/12/28 12:10:45;;;;;;;6.30;2.50;;;;;;;7.93;88.92;98733.96;103901;1334;63125;-73
2021/12/28 12:13:22;;;;;;;5.70;3.20;;;;;;;7.97;88.55;98723.45;103684;1337;74323;-73
2021/12/28 12:15:55;;;;;;;4.40;2.10;;;;;;;7.96;88.46;98713.53;103981;1331;72469;-73
2021/12/28 12:18:25;;;;;;;3.30;1.90;;;;;;;7.96;88.92;98703.38;103747;1334;73038;-73
2021/12/28 12:20:55;;;;;;;4.40;2.00;;;;;;;7.94;88.77;98696.40;104145;1330;62169;-74
2021/12/28 12:23:30;;;;;;;4.10;1.70;;;;;;;7.91;88.98;98695.95;103953;1330;60320;-74
2021/12/28 12:25:59;;;;;;;4.70;2.00;;;;;;;7.85;88.50;98698.64;103965;1328;74210;-73
2021/12/28 12:28:35;;;;;;;5.30;2.70;;;;;;;7.79;88.91;98692.98;103969;1330;71517;-73
2021/12/28 12:31:04;;;;;;;4.40;2.50;;;;;;;7.75;89.15;98684.66;103459;1334;73002;-73
2021/12/28 12:33:43;;;;;;;5.80;2.20;;;;;;;7.71;88.95;98677.45;103969;1330;61595;-73
2021/12/28 12:36:23;;;;;;;5.20;2.20;;;;;;;7.65;89.03;98669.82;104006;1327;59545;-73
2021/12/28 12:38:53;;;;;;;5.50;3.00;;;;;;;7.64;89.05;98669.37;104061;1331;74208;-74
2021/12/28 12:41:34;;;;;;;6.00;2.70;;;;;;;7.61;89.17;98666.48;103880;1335;72716;-75
2021/12/28 12:44:11;;;;;;;11.10;3.30;;;;;;;7.60;88.91;98666.90;103802;1334;71910;-74
2021/12/28 12:46:43;;;;;;;8.30;3.30;;;;;;;7.61;89.12;98664.05;103965;1330;61970;-74
2021/12/28 12:49:26;;;;;;;5.90;2.80;;;;;;;7.61;89.27;98660.16;104174;1331;60821;-75
2021/12/28 12:52:00;;;;;;;6.60;3.10;;;;;;;7.59;88.90;98658.05;103471;1339;75336;-74
2021/12/28 12:54:39;;;;;;;3.00;2.10;;;;;;;7.54;88.65;98653.03;103993;1328;71689;-74
2021/12/28 12:57:08;;;;;;;3.90;2.40;;;;;;;7.51;88.20;98653.23;103183;1338;74074;-74
2021/12/28 13:00:10;;;;;;;4.30;2.30;;;;;;;7.54;88.51;98645.84;103672;1331;61227;-74
2021/12/28 13:02:37;;;;;;;8.20;2.80;;;;;;;7.62;88.48;98643.92;103888;1334;61423;-75
2021/12/28 13:05:23;;;;;;;3.90;2.30;;;;;;;7.64;87.88;98639.41;103178;1332;75145;-74
2021/12/28 13:07:52;;;;;;;5.20;2.20;;;;;;;7.64;87.69;98631.45;104004;1330;72214;-77
2021/12/28 13:10:27;;;;;;;5.70;2.40;;;;;;;7.65;87.66;98626.73;104005;1331;73065;-77
2021/12/28 13:12:58;;;;;;;5.80;2.30;;;;;;;7.64;87.12;98614.04;103993;1329;62698;-77
2021/12/28 13:15:29;;;;;;;4.30;2.10;;;;;;;7.67;87.06;98608.06;103965;1327;60679;-76
2021/12/28 13:17:59;;;;;;;3.80;2.10;;;;;;;7.70;86.91;98602.53;103362;1330;75059;-74
2021/12/28 13:20:37;;;;;;;4.30;2.50;;;;;;;7.68;86.51;98591.21;103906;1331;70562;-75
2021/12/28 13:23:15;;;;;;;5.20;2.50;;;;;;;7.66;86.15;98575.22;103691;1333;412029;-75
2021/12/28 13:25:47;;;;;;;4.20;1.80;;;;;;;7.72;85.92;98571.42;103719;1331;62995;-75
2021/12/28 13:28:20;;;;;;;3.40;1.90;;;;;;;7.97;85.14;98563.81;103237;1336;62332;-76
2021/12/28 13:30:52;;;;;;;4.90;2.40;;;;;;;8.52;83.09;98555.46;103924;1336;75156;-77
2021/12/28 13:33:22;;;;;;;3.80;2.00;;;;;;;8.98;80.98;98550.73;104126;1332;71639;-76
2021/12/28 13:35:53;;;;;;;5.40;2.00;;;;;;;9.15;79.34;98549.66;103935;1330;73977;-77
2021/12/28 13:38:21;;;;;;;3.70;2.10;;;;;;;8.99;78.95;98550.07;103977;1334;63413;-76
2021/12/28 13:40:50;;;;;;;5.10;2.60;;;;;;;8.81;79.68;98550.18;103981;1327;59631;-76
2021/12/28 13:43:19;;;;;;;4.50;2.60;;;;;;;8.57;79.61;98547.27;104148;1333;74196;-75
2021/12/28 13:45:54;;;;;;;3.30;2.30;;;;;;;8.40;80.77;98550.30;103962;1329;72469;-76
2021/12/28 13:48:24;;;;;;;4.40;2.20;;;;;;;8.26;81.31;98548.76;103940;1335;74041;-76
2021/12/28 13:51:00;;;;;;;3.70;1.80;;;;;;;8.13;82.17;98548.58;103304;1334;63454;-76
2021/12/28 13:53:29;;;;;;;4.00;1.80;;;;;;;8.00;82.61;98550.11;103820;1331;60615;-76
2021/12/28 13:56:01;;;;;;;6.20;2.00;;;;;;;7.84;83.06;98548.06;103939;1334;74214;-76
2021/12/28 13:58:34;;;;;;;6.20;2.00;;;;;;;7.67;83.77;98546.16;103933;1327;71401;-76
2021/12/28 14:01:07;;;;;;;3.40;2.20;;;;;;;7.50;84.14;98541.25;104035;1333;72972;-76
2021/12/28 14:06:20;;;;;;;4.20;2.10;;;;;;;7.18;85.67;98537.11;104112;1317;59082;-75
2021/12/28 14:08:47;;;;;;;4.90;2.00;;;;;;;7.03;86.20;98537.30;104185;1332;74608;-75
2021/12/28 14:11:13;;;;;;;5.60;2.20;;;;;;;6.90;86.85;98536.54;104236;1333;71561;-76
2021/12/28 14:13:41;;;;;;;5.20;1.90;;;;;;;6.79;87.15;98535.05;104038;1329;74042;-76
2021/12/28 14:16:10;;;;;;;6.00;2.10;;;;;;;6.70;87.96;98530.46;104151;1333;62001;-76
2021/12/28 14:18:42;;;;;;;6.20;2.30;;;;;;;6.62;88.30;98524.88;104036;1333;59290;-75
2021/12/28 14:21:28;;;;;;;5.50;2.30;;;;;;;6.54;88.82;98517.52;103745;1332;75314;-76
2021/12/28 14:24:04;;;;;;;4.00;2.60;;;;;;;6.46;89.01;98511.10;103912;1333;72754;-75
2021/12/28 14:26:39;;;;;;;5.40;2.30;;;;;;;6.39;89.65;98502.86;103853;1330;72950;-74
2021/12/28 14:29:14;;;;;;;3.70;2.30;;;;;;;6.35;90.25;98494.92;104110;1330;62288;-75